createdAt,value
2022-11-07T00:00:32.151Z,25.08
2022-11-07T00:03:35.464Z,22.63
2022-11-07T00:06:39.006Z,26.87
2022-11-07T00:09:42.442Z,22.87
2022-11-07T00:12:45.725Z,26.48
2022-11-07T00:15:49.114Z,24.20
2022-11-07T00:18:52.736Z,28.60
2022-11-07T00:21:56.133Z,30.17
2022-11-07T00:24:59.481Z,32.08
2022-11-07T00:28:02.701Z,27.70
2022-11-07T00:31:07.508Z,21.83
2022-11-07T00:34:10.917Z,22.57
2022-11-07T00:37:14.186Z,23.57
2022-11-07T00:40:17.448Z,24.70
2022-11-07T00:43:20.715Z,23.92
2022-11-07T00:46:24.760Z,24.00
2022-11-07T00:49:28.436Z,23.27
2022-11-07T00:52:31.815Z,25.80
2022-11-07T00:55:35.513Z,25.33
2022-11-07T00:58:39.262Z,26.52
2022-11-07T01:01:42.735Z,25.63
2022-11-07T01:05:04.579Z,23.40
2022-11-07T01:08:09.211Z,23.07
2022-11-07T01:11:12.494Z,24.15
2022-11-07T01:14:18.201Z,22.65
2022-11-07T01:17:21.487Z,18.58
2022-11-07T01:20:24.770Z,21.63
2022-11-07T01:23:28.088Z,21.90
2022-11-07T01:26:31.424Z,22.50
2022-11-07T01:29:34.688Z,20.30
2022-11-07T01:32:37.940Z,24.55
2022-11-07T01:35:41.442Z,25.63
2022-11-07T01:38:48.658Z,25.37
2022-11-07T01:41:51.961Z,25.05
2022-11-07T01:44:58.462Z,36.03
2022-11-07T01:48:03.554Z,30.92
2022-11-07T01:51:07.759Z,21.67
2022-11-07T01:54:13.445Z,25.00
2022-11-07T01:57:31.703Z,23.15
2022-11-07T02:00:36.442Z,20.95
2022-11-07T02:03:41.226Z,24.55
2022-11-07T02:06:48.141Z,22.30
2022-11-07T02:09:55.207Z,22.67
2022-11-07T02:12:59.500Z,22.48
2022-11-07T02:16:04.848Z,20.38
2022-11-07T02:19:40.872Z,26.08
2022-11-07T02:22:57.469Z,23.67
2022-11-07T02:26:00.836Z,21.40
2022-11-07T02:29:09.501Z,24.60
2022-11-07T02:32:13.129Z,25.48
2022-11-07T02:35:34.875Z,24.55
2022-11-07T02:38:38.572Z,27.23
2022-11-07T02:41:41.960Z,24.47
2022-11-07T02:44:46.556Z,21.92
2022-11-07T02:47:49.881Z,23.52
2022-11-07T02:50:53.167Z,22.73
2022-11-07T02:53:56.419Z,23.37
2022-11-07T02:56:59.669Z,22.13
2022-11-07T03:00:03.858Z,25.27
2022-11-07T03:03:07.173Z,29.67
2022-11-07T03:06:13.616Z,26.88
2022-11-07T03:09:17.219Z,26.40
2022-11-07T03:12:20.666Z,25.13
2022-11-07T03:15:24.067Z,24.42
2022-11-07T03:18:27.772Z,26.30
2022-11-07T03:21:31.041Z,26.17
2022-11-07T03:24:34.325Z,27.77
2022-11-07T03:27:45.539Z,27.03
2022-11-07T03:30:48.868Z,31.05
2022-11-07T03:33:52.301Z,24.70
2022-11-07T03:36:55.644Z,27.67
2022-11-07T03:39:58.940Z,20.60
2022-11-07T03:43:02.238Z,23.67
2022-11-07T03:46:05.665Z,24.85
2022-11-07T03:49:09.465Z,28.60
2022-11-07T03:52:12.779Z,26.38
2022-11-07T03:55:18.284Z,27.87
2022-11-07T03:58:22.152Z,26.00
2022-11-07T04:01:25.728Z,30.02
2022-11-07T04:04:29.265Z,26.40
2022-11-07T04:07:32.557Z,27.58
2022-11-07T04:10:36.315Z,25.27
2022-11-07T04:13:58.208Z,24.63
2022-11-07T04:17:19.793Z,22.25
2022-11-07T04:20:23.194Z,25.08
2022-11-07T04:23:26.625Z,22.92
2022-11-07T04:26:48.417Z,31.27
2022-11-07T04:29:51.726Z,28.40
2022-11-07T04:32:57.773Z,32.55
2022-11-07T04:36:01.158Z,25.52
2022-11-07T04:39:04.489Z,30.55
2022-11-07T04:42:07.745Z,26.53
2022-11-07T04:45:12.023Z,30.93
2022-11-07T04:48:15.478Z,31.98
2022-11-07T04:51:22.792Z,29.73
2022-11-07T04:54:26.310Z,28.10
2022-11-07T04:57:29.693Z,30.63
2022-11-07T05:00:33.480Z,27.53
2022-11-07T05:03:41.536Z,34.28
2022-11-07T05:06:45.424Z,30.70
2022-11-07T05:09:49.036Z,32.42
2022-11-07T05:12:52.953Z,57.10
2022-11-07T05:15:56.385Z,42.27
2022-11-07T05:18:59.668Z,36.13
2022-11-07T05:22:21.747Z,34.63
2022-11-07T05:25:31.873Z,45.42
2022-11-07T05:28:39.111Z,40.13
2022-11-07T05:31:42.672Z,38.87
2022-11-07T05:34:46.014Z,39.78
2022-11-07T05:37:49.305Z,38.30
2022-11-07T05:40:52.548Z,36.80
2022-11-07T05:43:56.530Z,34.80
2022-11-07T05:47:00.668Z,63.63
2022-11-07T05:50:04.144Z,43.80
2022-11-07T05:53:08.144Z,68.72
2022-11-07T05:56:11.838Z,49.00
2022-11-07T05:59:15.356Z,34.57
2022-11-07T06:02:18.796Z,33.90
2022-11-07T06:05:24.282Z,56.05
2022-11-07T06:08:27.911Z,36.28
2022-11-07T06:11:32.939Z,44.60
2022-11-07T06:14:36.419Z,35.97
2022-11-07T06:17:39.873Z,40.20
2022-11-07T06:20:43.628Z,43.63
2022-11-07T06:23:46.965Z,44.67
2022-11-07T06:26:50.304Z,46.63
2022-11-07T06:29:53.589Z,39.70
2022-11-07T06:32:59.986Z,48.83
2022-11-07T06:36:12.031Z,49.58
2022-11-07T06:39:15.440Z,45.75
2022-11-07T06:42:18.807Z,42.88
2022-11-07T06:45:22.606Z,38.33
2022-11-07T06:48:25.918Z,54.87
2022-11-07T06:51:30.862Z,40.22
2022-11-07T06:54:34.190Z,59.40
2022-11-07T06:57:37.633Z,54.45
2022-11-07T07:00:41.150Z,46.00
2022-11-07T07:03:45.612Z,50.97
2022-11-07T07:06:48.968Z,70.18
2022-11-07T07:09:52.439Z,56.25
2022-11-07T07:12:56.755Z,64.30
2022-11-07T07:16:00.910Z,40.60
2022-11-07T07:19:05.059Z,46.67
2022-11-07T07:22:13.887Z,43.80
2022-11-07T07:25:17.544Z,45.60
2022-11-07T07:28:21.092Z,55.78
2022-11-07T07:31:30.761Z,44.97
2022-11-07T07:34:34.095Z,48.13
2022-11-07T07:37:37.518Z,44.78
2022-11-07T07:40:41.025Z,47.20
2022-11-07T07:43:44.741Z,48.63
2022-11-07T07:46:48.139Z,45.77
2022-11-07T07:49:51.680Z,46.33
2022-11-07T07:52:58.772Z,44.85
2022-11-07T07:56:05.660Z,42.03
2022-11-07T07:59:09.232Z,46.85
2022-11-07T08:02:13.261Z,45.43
2022-11-07T08:05:19.313Z,43.03
2022-11-07T08:08:28.176Z,44.80
2022-11-07T08:11:33.878Z,42.90
2022-11-07T08:14:37.407Z,50.17
2022-11-07T08:17:41.497Z,43.90
2022-11-07T08:20:45.278Z,42.93
2022-11-07T08:23:49.342Z,44.40
2022-11-07T08:26:52.696Z,45.10
2022-11-07T08:29:56.100Z,43.42
2022-11-07T08:33:03.632Z,45.00
2022-11-07T08:36:07.673Z,44.27
2022-11-07T08:39:11.322Z,44.55
2022-11-07T08:42:15.528Z,46.08
2022-11-07T08:45:18.992Z,49.30
2022-11-07T08:48:22.905Z,46.37
2022-11-07T08:51:26.445Z,44.57
2022-11-07T08:54:30.136Z,47.92
2022-11-07T08:57:33.614Z,44.60
2022-11-07T09:00:37.375Z,42.60
2022-11-07T09:03:46.598Z,44.97
2022-11-07T09:06:51.039Z,44.27
2022-11-07T09:09:54.362Z,46.28
2022-11-07T09:12:57.636Z,43.53
2022-11-07T09:16:02.644Z,48.80
2022-11-07T09:19:06.032Z,42.57
2022-11-07T09:22:09.438Z,47.70
2022-11-07T09:25:13.056Z,45.65
2022-11-07T09:28:17.210Z,43.30
2022-11-07T09:31:21.335Z,42.15
2022-11-07T09:34:25.881Z,44.77
2022-11-07T09:37:29.441Z,38.50
2022-11-07T09:40:43.652Z,40.13
2022-11-07T09:44:05.897Z,35.70
2022-11-07T09:47:17.077Z,35.92
2022-11-07T09:50:40.649Z,37.03
2022-11-07T09:53:49.924Z,38.17
2022-11-07T09:56:58.977Z,37.60
2022-11-07T10:00:15.226Z,36.65
2022-11-07T10:03:19.043Z,35.58
2022-11-07T10:06:25.410Z,35.90
2022-11-07T10:09:49.423Z,34.20
2022-11-07T10:12:55.407Z,34.78
2022-11-07T10:16:13.118Z,33.38
2022-11-07T10:19:26.842Z,30.58
2022-11-07T10:22:39.157Z,33.90
2022-11-07T10:25:52.232Z,27.53
2022-11-07T10:28:55.854Z,31.00
2022-11-07T10:32:16.913Z,29.65
2022-11-07T10:35:38.620Z,25.27
2022-11-07T10:38:42.909Z,25.30
2022-11-07T10:42:07.162Z,28.03
2022-11-07T10:45:18.339Z,23.48
2022-11-07T10:48:21.672Z,26.38
2022-11-07T10:51:39.955Z,21.20
2022-11-07T10:54:44.944Z,24.43
2022-11-07T10:57:53.692Z,21.53
2022-11-07T11:01:03.993Z,21.33
2022-11-07T11:04:07.374Z,20.50
2022-11-07T11:07:13.606Z,19.98
2022-11-07T11:10:24.599Z,20.33
2022-11-07T11:13:32.714Z,19.97
2022-11-07T11:16:38.666Z,22.40
2022-11-07T11:19:52.685Z,19.88
2022-11-07T11:22:56.009Z,21.98
2022-11-07T11:26:16.305Z,20.47
2022-11-07T11:29:39.490Z,21.47
2022-11-07T11:32:46.166Z,23.42
2022-11-07T11:36:12.058Z,25.38
2022-11-07T11:39:35.658Z,29.70
2022-11-07T11:42:51.399Z,35.67
2022-11-07T11:46:20.383Z,105.10
2022-11-07T11:49:45.126Z,110.55
2022-11-07T11:52:48.651Z,77.93
2022-11-07T11:55:58.261Z,35.00
2022-11-07T11:59:26.801Z,27.03
2022-11-07T12:03:07.649Z,20.20
2022-11-07T12:06:40.638Z,18.30
2022-11-07T12:09:54.552Z,24.85
2022-11-07T12:13:06.902Z,24.73
2022-11-07T12:16:28.036Z,25.60
2022-11-07T12:20:06.903Z,23.93
2022-11-07T12:23:25.118Z,24.63
2022-11-07T12:26:49.890Z,37.15
2022-11-07T12:30:02.976Z,25.40
2022-11-07T12:33:38.799Z,24.23
2022-11-07T12:37:10.333Z,27.40
2022-11-07T12:40:22.417Z,28.92
2022-11-07T12:43:44.380Z,21.98
2022-11-07T12:46:56.847Z,22.63
2022-11-07T12:50:19.164Z,24.63
2022-11-07T12:53:49.181Z,29.33
2022-11-07T12:56:54.274Z,27.02
2022-11-07T13:00:28.748Z,29.33
2022-11-07T13:04:10.090Z,30.77
2022-11-07T13:07:37.091Z,27.50
2022-11-07T13:11:03.844Z,45.77
2022-11-07T13:14:12.963Z,77.05
2022-11-07T13:17:24.138Z,68.47
2022-11-07T13:20:30.739Z,65.75
2022-11-07T13:23:34.221Z,58.73
2022-11-07T13:26:52.929Z,59.30
2022-11-07T13:29:56.421Z,57.00
2022-11-07T13:33:03.301Z,59.17
2022-11-07T13:36:15.514Z,58.35
2022-11-07T13:39:21.070Z,56.83
2022-11-07T13:42:28.415Z,47.07
2022-11-07T13:45:46.103Z,62.90
2022-11-07T13:48:57.632Z,152.10
2022-11-07T13:52:10.330Z,143.43
2022-11-07T13:55:22.083Z,67.67
2022-11-07T13:58:28.587Z,55.60
2022-11-07T14:01:45.938Z,41.85
2022-11-07T14:05:14.653Z,58.17
2022-11-07T14:08:21.103Z,65.78
2022-11-07T14:11:24.474Z,39.27
2022-11-07T14:14:29.398Z,61.07
2022-11-07T14:17:35.921Z,47.17
2022-11-07T14:20:45.316Z,62.63
2022-11-07T14:23:52.209Z,61.58
2022-11-07T14:26:59.293Z,60.80
2022-11-07T14:30:02.884Z,42.10
2022-11-07T14:33:16.462Z,61.88
2022-11-07T14:36:20.910Z,36.10
2022-11-07T14:39:26.177Z,32.72
2022-11-07T14:42:29.860Z,34.27
2022-11-07T14:46:06.009Z,35.80
2022-11-07T14:48:58.036Z,39.28
2022-11-07T14:52:02.394Z,38.15
2022-11-07T14:55:29.174Z,37.80
2022-11-07T14:58:33.100Z,40.53
2022-11-07T15:01:36.677Z,54.53
2022-11-07T15:04:46.346Z,49.53
2022-11-07T15:07:50.505Z,58.50
2022-11-07T15:11:14.129Z,43.63
2022-11-07T15:14:44.428Z,44.30
2022-11-07T15:17:53.662Z,41.10
2022-11-07T15:21:02.029Z,35.17
2022-11-07T15:24:30.335Z,37.75
2022-11-07T15:27:40.405Z,52.95
2022-11-07T15:30:45.061Z,55.17
2022-11-07T15:33:49.011Z,43.63
2022-11-07T15:36:53.083Z,42.63
2022-11-07T15:39:56.694Z,40.05
2022-11-07T15:43:00.223Z,36.78
2022-11-07T15:46:08.077Z,37.40
2022-11-07T15:49:12.222Z,33.97
2022-11-07T15:52:15.924Z,37.28
2022-11-07T15:55:21.898Z,34.15
2022-11-07T15:58:27.845Z,35.45
2022-11-07T16:01:31.407Z,37.77
2022-11-07T16:04:39.408Z,35.23
2022-11-07T16:07:45.212Z,41.70
2022-11-07T16:10:54.844Z,39.85
2022-11-07T16:14:29.516Z,39.65
2022-11-07T16:17:23.041Z,36.17
2022-11-07T16:20:33.452Z,37.40
2022-11-07T16:23:39.203Z,43.92
2022-11-07T16:26:48.318Z,41.85
2022-11-07T16:29:51.745Z,44.33
2022-11-07T16:32:55.242Z,46.93
2022-11-07T16:36:03.905Z,53.57
2022-11-07T16:39:14.706Z,44.90
2022-11-07T16:42:18.281Z,51.90
2022-11-07T16:45:22.455Z,40.08
2022-11-07T16:48:30.446Z,46.13
2022-11-07T16:51:33.892Z,41.43
2022-11-07T16:54:37.395Z,38.08
2022-11-07T16:57:41.017Z,35.85
2022-11-07T17:00:45.374Z,39.15
2022-11-07T17:03:48.903Z,38.80
2022-11-07T17:06:52.227Z,43.37
2022-11-07T17:09:55.725Z,40.28
2022-11-07T17:12:59.434Z,38.95
2022-11-07T17:16:02.916Z,40.78
2022-11-07T17:19:06.859Z,40.93
2022-11-07T17:22:14.360Z,48.13
2022-11-07T17:25:17.793Z,54.08
2022-11-07T17:28:22.159Z,55.90
2022-11-07T17:31:25.974Z,46.55
2022-11-07T17:34:29.492Z,52.47
2022-11-07T17:37:33.249Z,50.87
2022-11-07T17:40:37.579Z,53.53
2022-11-07T17:43:41.017Z,59.58
2022-11-07T17:46:48.709Z,75.82
2022-11-07T17:49:52.255Z,88.70
2022-11-07T17:52:55.898Z,76.53
2022-11-07T17:55:59.496Z,69.82
2022-11-07T17:59:06.007Z,67.47
2022-11-07T18:02:20.085Z,59.58
2022-11-07T18:05:31.811Z,58.83
2022-11-07T18:08:51.721Z,55.33
2022-11-07T18:11:55.781Z,59.55
2022-11-07T18:14:59.427Z,50.00
2022-11-07T18:18:08.189Z,54.25
2022-11-07T18:21:14.232Z,53.73
2022-11-07T18:24:17.939Z,49.87
2022-11-07T18:27:21.875Z,46.80
2022-11-07T18:30:25.577Z,41.17
2022-11-07T18:33:29.358Z,44.70
2022-11-07T18:36:36.975Z,46.80
2022-11-07T18:39:40.532Z,48.87
2022-11-07T18:42:45.773Z,61.88
2022-11-07T18:45:49.508Z,49.95
2022-11-07T18:48:53.243Z,61.28
2022-11-07T18:51:56.691Z,58.60
2022-11-07T18:55:00.382Z,82.80
2022-11-07T18:58:04.334Z,83.95
2022-11-07T19:01:19.431Z,57.10
2022-11-07T19:04:22.945Z,63.15
2022-11-07T19:07:26.533Z,70.23
2022-11-07T19:10:30.248Z,67.97
2022-11-07T19:13:37.487Z,54.70
2022-11-07T19:16:41.048Z,49.13
2022-11-07T19:19:44.558Z,45.33
2022-11-07T19:22:48.415Z,44.20
2022-11-07T19:25:52.380Z,42.83
2022-11-07T19:28:57.418Z,44.80
2022-11-07T19:32:01.787Z,46.28
2022-11-07T19:35:05.881Z,53.20
2022-11-07T19:38:11.890Z,47.77
2022-11-07T19:41:17.789Z,54.90
2022-11-07T19:44:21.147Z,43.67
2022-11-07T19:47:24.786Z,47.10
2022-11-07T19:50:28.388Z,49.45
2022-11-07T19:53:31.912Z,50.63
2022-11-07T19:56:35.481Z,43.30
2022-11-07T19:59:39.154Z,46.05
2022-11-07T20:02:45.002Z,47.45
2022-11-07T20:05:51.854Z,64.93
2022-11-07T20:08:55.372Z,79.43
2022-11-07T20:11:59.039Z,60.43
2022-11-07T20:15:03.072Z,59.40
2022-11-07T20:18:07.078Z,55.63
2022-11-07T20:21:15.117Z,46.50
2022-11-07T20:24:18.398Z,47.07
2022-11-07T20:27:21.756Z,51.97
2022-11-07T20:30:25.317Z,54.13
2022-11-07T20:33:28.832Z,49.55
2022-11-07T20:36:33.348Z,47.08
2022-11-07T20:39:36.925Z,56.43
2022-11-07T20:42:40.461Z,63.37
2022-11-07T20:45:43.999Z,89.57
2022-11-07T20:48:48.402Z,79.65
2022-11-07T20:51:53.232Z,47.15
2022-11-07T20:55:00.073Z,42.70
2022-11-07T20:58:04.430Z,57.23
2022-11-07T21:01:12.134Z,40.70
2022-11-07T21:04:16.733Z,34.33
2022-11-07T21:07:22.727Z,38.53
2022-11-07T21:10:26.345Z,38.43
2022-11-07T21:13:29.640Z,60.83
2022-11-07T21:16:35.962Z,66.40
2022-11-07T21:19:39.698Z,37.10
2022-11-07T21:22:43.315Z,46.72
2022-11-07T21:25:48.554Z,40.13
2022-11-07T21:28:52.485Z,38.60
2022-11-07T21:31:56.062Z,41.53
2022-11-07T21:34:59.424Z,42.22
2022-11-07T21:38:02.944Z,40.45
2022-11-07T21:41:08.538Z,58.23
2022-11-07T21:44:14.788Z,61.37
2022-11-07T21:47:18.161Z,62.20
2022-11-07T21:50:43.520Z,60.25
2022-11-07T21:53:46.655Z,56.38
2022-11-07T21:56:49.978Z,55.43
2022-11-07T21:59:53.361Z,49.07
2022-11-07T22:02:56.740Z,53.53
2022-11-07T22:06:04.883Z,53.95
2022-11-07T22:09:09.618Z,50.95
2022-11-07T22:12:13.257Z,48.17
2022-11-07T22:15:16.594Z,48.33
2022-11-07T22:18:19.915Z,51.38
2022-11-07T22:21:23.841Z,52.08
2022-11-07T22:24:27.393Z,48.75
2022-11-07T22:27:30.713Z,48.53
2022-11-07T22:30:34.688Z,47.33
2022-11-07T22:33:38.158Z,47.17
2022-11-07T22:36:41.429Z,47.38
2022-11-07T22:39:44.822Z,53.90
2022-11-07T22:42:48.199Z,46.70
2022-11-07T22:45:51.689Z,50.87
2022-11-07T22:48:55.672Z,60.92
2022-11-07T22:51:59.007Z,55.38
2022-11-07T22:55:02.356Z,53.13
2022-11-07T22:58:06.342Z,62.70
2022-11-07T23:01:20.617Z,50.57
2022-11-07T23:04:26.430Z,51.90
2022-11-07T23:07:33.422Z,47.30
2022-11-07T23:10:36.863Z,52.90
2022-11-07T23:13:43.244Z,46.77
2022-11-07T23:16:52.268Z,47.13
2022-11-07T23:19:56.115Z,43.25
2022-11-07T23:22:59.816Z,47.45
2022-11-07T23:26:13.814Z,44.55
2022-11-07T23:29:19.976Z,71.93
2022-11-07T23:32:25.951Z,123.67
2022-11-07T23:35:31.470Z,122.88
2022-11-07T23:38:35.202Z,36.05
2022-11-07T23:41:39.058Z,61.97
2022-11-07T23:45:01.271Z,89.90
2022-11-07T23:48:23.273Z,66.87
2022-11-07T23:51:26.645Z,40.53
2022-11-07T23:54:48.654Z,35.08
2022-11-07T23:58:10.661Z,41.03
